Time;durP1;ratioP1;P1;durP2;ratioP2;P2;SDS_P1;SDS_P2;PMS_P1;PMS_P2;Temp;Humidity;BMP_temperature;BMP_pressure;BME280_temperature;BME280_humidity;BME280_pressure;Samples;Min_cycle;Max_cycle;Signal;HPM_P1;HPM_P2
2021/07/18 00:01:50;;;;;;;22.35;19.50;;;;;;;16.64;87.21;96128.25;4991806;28;20184;-78
2021/07/18 00:04:15;;;;;;;28.98;20.00;;;;;;;16.62;87.13;96124.97;4991955;28;20196;-76
2021/07/18 00:06:41;;;;;;;26.05;19.17;;;;;;;16.62;86.99;96126.78;5000164;28;20211;-78
2021/07/18 00:09:07;;;;;;;26.67;19.88;;;;;;;16.57;86.90;96129.91;4996082;28;20269;-77
2021/07/18 00:11:32;;;;;;;23.17;19.92;;;;;;;16.58;87.37;96128.09;4996316;28;20194;-78
2021/07/18 00:13:58;;;;;;;24.27;19.63;;;;;;;16.56;87.14;96117.78;4991636;28;20216;-75
2021/07/18 00:16:23;;;;;;;27.75;20.08;;;;;;;16.52;87.56;96120.91;4984660;28;20231;-76
2021/07/18 00:18:48;;;;;;;27.50;21.10;;;;;;;16.47;87.49;96126.69;4977904;28;20735;-78
2021/07/18 00:21:14;;;;;;;26.85;21.67;;;;;;;16.47;88.32;96118.81;4975876;28;20231;-77
2021/07/18 00:23:40;;;;;;;24.38;20.63;;;;;;;16.49;88.39;96121.25;4976283;28;20205;-78
2021/07/18 00:26:05;;;;;;;25.13;20.90;;;;;;;16.46;88.26;96122.41;4967586;28;20663;-78
2021/07/18 00:28:31;;;;;;;26.00;21.00;;;;;;;16.48;88.21;96117.00;4983594;28;20188;-76
2021/07/18 00:30:56;;;;;;;31.25;21.77;;;;;;;16.44;88.19;96121.78;4977100;28;20253;-77
2021/07/18 00:33:21;;;;;;;26.83;20.73;;;;;;;16.41;88.45;96120.28;4995866;28;20196;-79
2021/07/18 00:35:47;;;;;;;27.38;21.92;;;;;;;16.38;88.57;96115.41;4988517;28;20188;-77
2021/07/18 00:38:12;;;;;;;27.70;22.25;;;;;;;16.35;88.80;96118.38;4987154;28;20176;-78
2021/07/18 00:40:37;;;;;;;25.17;20.58;;;;;;;16.39;88.72;96116.22;4996206;28;20175;-79
2021/07/18 00:43:04;;;;;;;26.20;20.70;;;;;;;16.38;88.19;96115.41;4995178;28;20275;-79
2021/07/18 00:45:29;;;;;;;27.15;19.30;;;;;;;16.35;88.20;96115.75;4996017;28;20180;-78
2021/07/18 00:47:56;;;;;;;23.00;16.25;;;;;;;16.37;87.43;96115.56;4984944;28;20684;-77
2021/07/18 00:50:21;;;;;;;24.52;17.20;;;;;;;16.32;86.82;96115.25;4976318;28;20219;-78
2021/07/18 00:52:46;;;;;;;21.77;17.60;;;;;;;16.24;nan;96110.03;4977036;28;20184;-77
2021/07/18 00:55:13;;;;;;;23.35;18.05;;;;;;;16.30;87.07;96106.75;4959834;28;20529;-78
2021/07/18 00:57:43;;;;;;;22.77;18.15;;;;;;;16.27;87.19;96104.47;4979732;28;20247;-76
2021/07/18 01:00:10;;;;;;;24.38;19.40;;;;;;;16.24;87.29;96096.94;4987669;28;20242;-78
2021/07/18 01:02:37;;;;;;;25.35;18.00;;;;;;;16.17;87.29;96101.22;4995031;28;20648;-77
2021/07/18 01:05:03;;;;;;;27.55;17.77;;;;;;;16.17;87.41;96106.44;4969235;28;20189;-78
2021/07/18 01:07:28;;;;;;;24.45;17.55;;;;;;;16.14;87.12;96097.94;4987360;28;20250;-77
2021/07/18 01:09:54;;;;;;;24.67;17.50;;;;;;;16.09;86.67;96092.41;4979106;28;20680;-78
2021/07/18 01:12:20;;;;;;;22.88;16.40;;;;;;;16.06;86.43;96090.09;4995444;28;20226;-78
2021/07/18 01:14:45;;;;;;;21.27;16.00;;;;;;;16.06;85.94;96079.63;4977811;28;20244;-75
2021/07/18 01:17:11;;;;;;;18.70;14.98;;;;;;;16.00;85.31;96085.56;4966672;28;20710;-78
2021/07/18 01:19:39;;;;;;;18.73;14.45;;;;;;;15.95;84.97;96085.25;4989830;28;20184;-78
2021/07/18 01:22:04;;;;;;;20.55;13.20;;;;;;;15.93;84.38;96089.84;4995224;28;20699;-78
2021/07/18 01:24:30;;;;;;;18.98;13.07;;;;;;;15.95;84.22;96090.47;4994722;28;20286;-78
2021/07/18 01:26:57;;;;;;;19.02;12.63;;;;;;;15.91;84.29;96085.75;4973283;28;20235;-77
2021/07/18 01:29:23;;;;;;;14.95;12.63;;;;;;;15.85;84.42;96089.84;4971447;28;20266;-78
2021/07/18 01:31:49;;;;;;;19.90;13.57;;;;;;;15.82;84.50;96096.25;4994856;28;20705;-77
2021/07/18 01:34:14;;;;;;;18.50;13.85;;;;;;;15.79;84.55;96090.50;4995038;28;20196;-78
2021/07/18 01:36:40;;;;;;;19.60;14.10;;;;;;;15.78;84.78;96089.69;4969335;28;20528;-77
2021/07/18 01:39:07;;;;;;;20.10;14.52;;;;;;;15.75;85.44;96092.66;4984317;28;20206;-78
2021/07/18 01:41:32;;;;;;;18.80;15.57;;;;;;;15.76;85.81;96088.22;4994693;28;20250;-78
2021/07/18 01:43:58;;;;;;;22.25;15.55;;;;;;;15.74;85.94;96090.19;4994476;28;20571;-78
2021/07/18 01:46:23;;;;;;;21.42;15.77;;;;;;;15.71;86.13;96085.28;4979008;28;20555;-78
2021/07/18 01:48:52;;;;;;;19.75;16.25;;;;;;;15.70;86.11;96081.03;4984972;28;20216;-78
2021/07/18 01:51:27;;;;;;;18.73;16.10;;;;;;;15.68;86.09;96085.63;4956115;28;20193;-78
2021/07/18 01:53:54;;;;;;;22.38;17.52;;;;;;;15.63;86.61;96082.66;4971670;28;20201;-77
2021/07/18 01:56:20;;;;;;;20.17;15.40;;;;;;;15.56;86.55;96080.69;4956445;29;20181;-79
2021/07/18 01:58:47;;;;;;;16.45;13.57;;;;;;;15.57;85.78;96074.47;4988723;28;20192;-78
2021/07/18 02:01:12;;;;;;;16.42;12.73;;;;;;;15.49;84.63;96071.88;4986587;28;20262;-77
2021/07/18 02:03:38;;;;;;;16.83;12.93;;;;;;;15.42;84.47;96073.50;4994733;28;20231;-78
2021/07/18 02:06:04;;;;;;;15.20;12.15;;;;;;;15.43;84.09;96074.31;4995955;28;20180;-77
2021/07/18 02:08:29;;;;;;;16.55;12.32;;;;;;;15.36;84.04;96074.16;4972934;28;20612;-77
2021/07/18 02:10:54;;;;;;;16.10;11.52;;;;;;;15.35;84.22;96075.13;4983442;28;20184;-78
2021/07/18 02:13:20;;;;;;;15.23;12.55;;;;;;;15.31;83.68;96076.47;4993820;28;20203;-78
2021/07/18 02:15:46;;;;;;;16.63;12.07;;;;;;;15.25;84.53;96074.50;4977737;28;20191;-76
2021/07/18 02:18:11;;;;;;;14.35;12.85;;;;;;;15.24;84.52;96072.84;4994375;28;20622;-76
2021/07/18 02:20:36;;;;;;;18.67;13.25;;;;;;;15.25;84.67;96079.72;4985161;28;20622;-78
2021/07/18 02:23:01;;;;;;;20.15;14.30;;;;;;;15.19;85.21;96085.59;4956811;28;20227;-78
2021/07/18 02:25:27;;;;;;;16.35;14.13;;;;;;;15.18;85.70;96083.97;4956853;28;20178;-78
2021/07/18 02:27:53;;;;;;;19.83;15.70;;;;;;;15.17;86.09;96087.56;4970213;28;20205;-78
2021/07/18 02:30:21;;;;;;;20.77;16.00;;;;;;;15.14;86.40;96088.72;4965909;28;20215;-78
2021/07/18 02:32:47;;;;;;;21.98;15.73;;;;;;;15.13;87.01;96087.09;4985480;28;20254;-78
2021/07/18 02:35:14;;;;;;;20.40;16.60;;;;;;;15.10;86.85;96086.56;4977788;28;20178;-78
2021/07/18 02:37:41;;;;;;;22.05;15.95;;;;;;;15.00;87.60;96091.97;4994121;28;20203;-77
2021/07/18 02:40:07;;;;;;;23.08;15.98;;;;;;;14.98;87.58;96088.69;4991434;28;20254;-78
2021/07/18 02:42:33;;;;;;;21.50;15.98;;;;;;;14.96;87.55;96088.84;4980879;28;20284;-78
2021/07/18 02:44:58;;;;;;;24.25;15.80;;;;;;;14.91;87.70;96088.50;4974888;28;20271;-77
2021/07/18 02:47:23;;;;;;;20.67;15.43;;;;;;;14.91;87.37;96093.75;4994826;28;20668;-78
2021/07/18 02:49:49;;;;;;;21.08;15.35;;;;;;;14.88;87.48;96094.06;4993344;28;20211;-78
2021/07/18 02:52:15;;;;;;;21.10;15.23;;;;;;;14.84;87.34;96086.69;4982005;28;20187;-78
2021/07/18 02:54:40;;;;;;;25.15;14.98;;;;;;;14.81;87.02;96087.84;4958996;28;20220;-78
2021/07/18 02:57:06;;;;;;;19.00;15.13;;;;;;;14.77;87.40;96081.31;4954505;29;20181;-79
2021/07/18 02:59:31;;;;;;;20.60;14.38;;;;;;;14.74;87.37;96086.84;4955647;29;20185;-77
2021/07/18 03:01:59;;;;;;;18.20;14.48;;;;;;;14.71;87.70;96081.94;4960383;28;20223;-78
2021/07/18 03:04:25;;;;;;;20.58;15.23;;;;;;;14.66;87.51;96084.22;4986665;28;20584;-77
2021/07/18 03:06:50;;;;;;;19.10;14.47;;;;;;;14.64;87.66;96086.16;4993285;28;20272;-78
2021/07/18 03:09:16;;;;;;;16.17;14.43;;;;;;;14.60;87.85;96087.47;4976245;28;20211;-78
2021/07/18 03:11:41;;;;;;;17.92;14.05;;;;;;;14.54;87.70;96090.72;4993884;28;20603;-77
2021/07/18 03:14:06;;;;;;;17.02;14.38;;;;;;;14.52;87.66;96092.69;4982502;28;20216;-78
2021/07/18 03:16:32;;;;;;;21.88;13.65;;;;;;;14.43;88.03;96095.22;4986922;28;20195;-78
2021/07/18 03:18:57;;;;;;;20.52;13.88;;;;;;;14.48;87.88;96094.78;4993135;28;20199;-76
2021/07/18 03:21:22;;;;;;;18.97;12.97;;;;;;;14.48;87.41;96092.16;4993918;28;20184;-78
2021/07/18 03:23:48;;;;;;;17.67;12.27;;;;;;;14.45;87.23;96087.25;4982004;28;20224;-78
2021/07/18 03:26:13;;;;;;;16.27;11.73;;;;;;;14.43;86.82;96083.97;4965287;28;20211;-79
2021/07/18 03:28:38;;;;;;;17.25;11.80;;;;;;;14.39;86.86;96080.00;4973634;28;20209;-79
2021/07/18 03:31:03;;;;;;;17.37;11.83;;;;;;;14.36;86.72;96096.84;4973007;28;20283;-77
2021/07/18 03:33:29;;;;;;;18.13;12.50;;;;;;;14.34;86.77;96088.34;4971440;28;20255;-78
2021/07/18 03:35:54;;;;;;;14.20;12.67;;;;;;;14.29;86.72;96087.97;4981833;28;20196;-77
2021/07/18 03:38:19;;;;;;;17.25;11.15;;;;;;;14.25;86.38;96097.13;4975700;28;20667;-78
2021/07/18 03:40:45;;;;;;;19.20;12.18;;;;;;;14.22;86.38;96089.56;4992414;28;20194;-78
2021/07/18 03:43:10;;;;;;;17.02;11.70;;;;;;;14.14;86.00;96097.41;4992730;28;20299;-78
2021/07/18 03:45:35;;;;;;;14.30;11.67;;;;;;;14.08;85.83;96096.22;4984657;28;20333;-78
2021/07/18 03:48:01;;;;;;;14.63;11.23;;;;;;;14.10;85.92;96098.69;4985364;28;20191;-78
2021/07/18 03:50:26;;;;;;;15.15;11.20;;;;;;;14.11;85.66;96097.69;4991973;28;20677;-77
2021/07/18 03:52:53;;;;;;;13.87;11.37;;;;;;;14.15;85.52;96096.44;4975844;28;20285;-78
2021/07/18 03:55:18;;;;;;;15.13;11.43;;;;;;;14.21;85.35;96093.16;4986129;28;20189;-78
2021/07/18 03:57:43;;;;;;;13.10;10.48;;;;;;;14.28;84.78;96091.56;4982087;28;20698;-79
2021/07/18 04:00:09;;;;;;;12.97;9.23;;;;;;;14.34;84.37;96095.34;4972850;28;20631;-76
2021/07/18 04:02:34;;;;;;;13.57;9.50;;;;;;;14.39;84.15;96090.47;4972396;28;20184;-76
2021/07/18 04:05:00;;;;;;;12.60;8.87;;;;;;;14.45;83.80;96092.47;4972649;28;20181;-78
2021/07/18 04:07:25;;;;;;;12.60;8.47;;;;;;;14.73;82.98;96098.28;4979443;28;20192;-78
2021/07/18 04:09:51;;;;;;;8.97;7.97;;;;;;;15.20;80.14;96098.53;4972814;28;20203;-76
2021/07/18 04:12:16;;;;;;;9.82;6.80;;;;;;;15.74;78.25;96098.06;4991846;28;20818;-76
2021/07/18 04:14:41;;;;;;;7.65;6.68;;;;;;;16.31;76.38;96098.72;4993252;28;20246;-78
2021/07/18 04:17:07;;;;;;;9.55;6.80;;;;;;;16.74;73.48;96099.22;4984615;28;20199;-78
2021/07/18 04:19:32;;;;;;;7.57;6.00;;;;;;;17.05;71.42;96103.59;4983845;28;20183;-79
2021/07/18 04:21:57;;;;;;;11.35;6.15;;;;;;;17.13;70.13;96096.50;4991762;28;20203;-76
2021/07/18 04:24:23;;;;;;;8.13;6.70;;;;;;;16.86;71.21;96107.50;4975600;28;20192;-78
2021/07/18 04:26:48;;;;;;;8.38;5.25;;;;;;;16.75;71.23;96107.91;4989710;28;20539;-78
2021/07/18 04:29:13;;;;;;;7.30;5.45;;;;;;;16.67;71.01;96104.28;4981432;28;20676;-78
2021/07/18 04:31:39;;;;;;;6.85;5.53;;;;;;;16.47;71.49;96108.31;4972438;28;20180;-78
2021/07/18 04:34:04;;;;;;;6.68;4.97;;;;;;;16.32;71.66;96110.00;4973479;28;20207;-77
2021/07/18 04:36:29;;;;;;;6.90;4.90;;;;;;;16.49;70.71;96105.53;4973716;28;20204;-78
2021/07/18 04:38:55;;;;;;;5.80;4.65;;;;;;;17.50;67.93;96116.75;4979801;28;20195;-78
2021/07/18 04:41:20;;;;;;;7.85;4.90;;;;;;;18.77;63.71;96114.97;4984057;28;20650;-77
2021/07/18 04:43:45;;;;;;;5.72;4.35;;;;;;;20.02;60.46;96112.72;4974599;28;20697;-78
2021/07/18 04:46:12;;;;;;;5.43;4.03;;;;;;;20.69;56.07;96118.41;4992974;28;20176;-78
2021/07/18 04:48:37;;;;;;;5.43;4.25;;;;;;;21.26;53.95;96123.25;4984899;28;20548;-79
2021/07/18 04:51:02;;;;;;;6.47;4.15;;;;;;;21.79;51.66;96118.03;4983106;28;20195;-78
2021/07/18 04:53:28;;;;;;;4.90;3.72;;;;;;;22.08;51.26;96113.38;4996204;28;20215;-78
2021/07/18 04:55:54;;;;;;;6.30;3.55;;;;;;;22.81;49.85;96114.81;4978845;28;20191;-79
2021/07/18 04:58:20;;;;;;;4.15;3.75;;;;;;;23.05;48.52;96117.78;4995217;28;20176;-78
2021/07/18 05:00:45;;;;;;;4.03;3.63;;;;;;;23.62;45.90;96122.16;4969052;28;20210;-79
2021/07/18 05:03:10;;;;;;;5.60;3.70;;;;;;;23.58;45.51;96125.41;4975977;28;20205;-78
2021/07/18 05:05:37;;;;;;;4.13;3.22;;;;;;;24.64;44.02;96114.69;4977227;28;20176;-79
2021/07/18 05:08:02;;;;;;;6.47;3.20;;;;;;;24.18;44.00;96117.81;4975383;28;20236;-77
2021/07/18 05:10:28;;;;;;;4.38;3.03;;;;;;;24.49;42.67;96115.06;4980043;28;20844;-76
2021/07/18 05:12:55;;;;;;;4.07;3.10;;;;;;;25.32;41.14;96113.66;4986903;28;20574;-77
2021/07/18 05:15:22;;;;;;;4.03;2.67;;;;;;;25.26;40.38;96120.69;4980641;28;20208;-77
2021/07/18 05:17:48;;;;;;;5.45;2.88;;;;;;;25.08;40.59;96118.88;4974266;28;20247;-76
2021/07/18 05:20:15;;;;;;;5.47;3.10;;;;;;;25.33;40.88;96125.91;4988407;28;20176;-76
2021/07/18 05:22:40;;;;;;;4.18;2.90;;;;;;;25.99;39.28;96132.94;4982899;28;20184;-77
2021/07/18 05:25:08;;;;;;;3.85;2.70;;;;;;;25.53;39.59;96137.09;4992675;28;20543;-77
2021/07/18 05:27:34;;;;;;;5.97;3.08;;;;;;;25.66;40.33;96136.88;4978168;28;20191;-76
2021/07/18 05:29:59;;;;;;;7.38;2.80;;;;;;;26.14;38.41;96127.94;4993888;28;20207;-76
2021/07/18 05:32:24;;;;;;;4.30;2.95;;;;;;;25.97;39.10;96140.31;4983875;28;20218;-76
2021/07/18 05:34:50;;;;;;;4.88;3.28;;;;;;;25.98;39.06;96136.63;4975970;28;20287;-77
2021/07/18 05:37:15;;;;;;;4.25;3.08;;;;;;;26.22;38.71;96134.78;4965240;28;20181;-77
2021/07/18 05:39:41;;;;;;;5.82;2.55;;;;;;;26.08;39.01;96136.88;4962117;28;20529;-77
2021/07/18 05:42:06;;;;;;;4.68;3.10;;;;;;;27.03;37.54;96138.41;4962051;28;20192;-76
2021/07/18 05:44:32;;;;;;;3.65;2.38;;;;;;;26.34;37.51;96134.78;4976837;28;20688;-75
2021/07/18 05:46:57;;;;;;;5.35;2.80;;;;;;;25.97;38.05;96143.81;4962733;28;20704;-76
2021/07/18 05:49:23;;;;;;;4.90;2.42;;;;;;;25.93;38.60;96139.16;4965972;28;20196;-75
2021/07/18 05:51:48;;;;;;;5.32;2.75;;;;;;;26.21;37.92;96136.63;4973181;28;20210;-76
2021/07/18 05:54:13;;;;;;;5.40;2.78;;;;;;;26.13;39.21;96147.63;4979814;28;20204;-76
2021/07/18 05:56:39;;;;;;;4.88;2.58;;;;;;;27.44;36.32;96148.00;4987617;28;20210;-75
2021/07/18 05:59:04;;;;;;;2.70;2.20;;;;;;;27.25;36.35;96138.59;4976460;28;20180;-75
2021/07/18 06:01:29;;;;;;;2.95;2.30;;;;;;;27.68;35.59;96145.25;4975917;28;20200;-76
2021/07/18 06:03:55;;;;;;;4.13;2.45;;;;;;;27.50;36.27;96143.56;4982517;28;20196;-75
2021/07/18 06:06:20;;;;;;;4.50;2.53;;;;;;;27.24;35.54;96136.97;4964432;28;20180;-75
2021/07/18 06:08:46;;;;;;;3.05;2.10;;;;;;;28.12;34.74;96144.38;4968054;28;20268;-76
2021/07/18 06:11:11;;;;;;;4.93;2.28;;;;;;;27.76;34.02;96140.34;4974158;28;20196;-76
2021/07/18 06:13:36;;;;;;;4.65;2.28;;;;;;;28.05;34.07;96145.59;4970356;28;20330;-75
2021/07/18 06:16:02;;;;;;;4.60;1.98;;;;;;;26.49;34.76;96143.13;4982117;28;20243;-76
2021/07/18 06:18:27;;;;;;;2.75;1.77;;;;;;;25.61;36.92;96139.41;4992432;28;20246;-77
2021/07/18 06:20:52;;;;;;;2.63;2.20;;;;;;;27.10;34.78;96142.56;4992417;28;20211;-74
2021/07/18 06:23:18;;;;;;;2.88;2.00;;;;;;;27.77;33.22;96139.28;4992176;28;20207;-76
2021/07/18 06:25:43;;;;;;;3.67;2.03;;;;;;;26.20;34.99;96145.66;4984128;28;20628;-76
2021/07/18 06:28:09;;;;;;;3.30;2.20;;;;;;;26.08;36.87;96158.16;4967925;28;20191;-77
2021/07/18 06:30:34;;;;;;;3.30;2.63;;;;;;;27.60;34.78;96144.56;4993520;28;20200;-77
2021/07/18 06:32:59;;;;;;;4.68;3.03;;;;;;;27.01;34.75;96151.94;4993311;28;20247;-77
2021/07/18 06:35:24;;;;;;;3.90;2.10;;;;;;;27.12;35.16;96142.31;4986531;28;20196;-77
2021/07/18 06:37:50;;;;;;;4.68;2.55;;;;;;;27.27;35.50;96153.28;4980241;28;20191;-77
2021/07/18 06:40:17;;;;;;;5.40;2.20;;;;;;;26.63;35.20;96144.50;4956316;28;20548;-77
2021/07/18 06:42:42;;;;;;;2.95;2.25;;;;;;;27.08;34.23;96146.53;4972152;28;20279;-77
2021/07/18 06:45:08;;;;;;;4.28;2.05;;;;;;;26.24;34.89;96149.50;4972717;28;20207;-78
2021/07/18 06:47:33;;;;;;;2.50;1.80;;;;;;;24.71;38.26;96149.13;4979543;28;20199;-77
2021/07/18 06:49:59;;;;;;;3.05;2.00;;;;;;;26.23;36.86;96157.69;4990697;28;20199;-76
2021/07/18 06:52:25;;;;;;;5.18;2.38;;;;;;;26.65;34.08;96161.06;4992034;28;20226;-77
2021/07/18 06:54:51;;;;;;;5.30;2.13;;;;;;;26.16;35.63;96163.16;4991702;28;20195;-77
2021/07/18 06:57:16;;;;;;;3.00;2.05;;;;;;;25.22;37.50;96155.91;4983206;28;20552;-77
2021/07/18 06:59:41;;;;;;;4.72;2.20;;;;;;;25.35;37.29;96164.50;4984725;28;20188;-75
2021/07/18 07:02:07;;;;;;;5.70;2.38;;;;;;;25.45;37.42;96161.34;4993047;28;20174;-76
2021/07/18 07:04:33;;;;;;;2.92;2.30;;;;;;;25.32;38.02;96158.84;4991182;28;20209;-76
2021/07/18 07:06:58;;;;;;;4.35;2.50;;;;;;;25.74;38.49;96161.56;4987979;28;20193;-76
2021/07/18 07:09:23;;;;;;;3.38;2.03;;;;;;;25.67;36.60;96170.41;4980973;28;20237;-77
2021/07/18 07:11:48;;;;;;;3.47;2.38;;;;;;;26.14;36.34;96175.84;4972882;28;20187;-77
2021/07/18 07:14:14;;;;;;;6.63;2.60;;;;;;;26.13;36.73;96174.22;4971207;28;20251;-76
2021/07/18 07:16:39;;;;;;;4.82;2.20;;;;;;;24.76;39.36;96163.38;4971702;28;20259;-77
2021/07/18 07:19:04;;;;;;;6.60;2.40;;;;;;;24.89;39.89;96166.91;4962026;28;20188;-77
2021/07/18 07:21:30;;;;;;;4.07;2.53;;;;;;;24.60;39.99;96166.63;4985263;28;20643;-78
2021/07/18 07:23:55;;;;;;;4.07;2.35;;;;;;;23.22;43.26;96156.00;4991198;28;20200;-77
2021/07/18 07:26:20;;;;;;;3.30;1.90;;;;;;;24.09;42.12;96158.91;4991463;28;20234;-76
2021/07/18 07:28:46;;;;;;;3.10;2.35;;;;;;;24.39;41.53;96167.06;4983514;28;20192;-77
2021/07/18 07:31:11;;;;;;;5.53;2.20;;;;;;;23.53;43.14;96168.47;4982343;28;20191;-76
2021/07/18 07:33:37;;;;;;;5.50;2.25;;;;;;;22.59;45.60;96159.25;4992387;28;20184;-78
2021/07/18 07:36:03;;;;;;;4.53;2.25;;;;;;;23.55;43.47;96160.31;4991175;28;20254;-76
2021/07/18 07:38:29;;;;;;;4.72;2.00;;;;;;;24.08;43.08;96157.28;4975155;28;20202;-76
2021/07/18 07:40:54;;;;;;;4.20;2.35;;;;;;;25.05;40.61;96163.69;4980922;28;20702;-78
2021/07/18 07:43:20;;;;;;;10.93;7.15;;;;;;;23.04;45.04;96156.69;4972361;28;20587;-77
2021/07/18 07:45:45;;;;;;;4.97;3.13;;;;;;;23.18;44.18;96162.75;4963852;28;20668;-77
2021/07/18 07:48:11;;;;;;;3.35;2.05;;;;;;;22.64;45.66;96165.78;4962323;28;20193;-78
2021/07/18 07:50:36;;;;;;;6.88;2.30;;;;;;;23.29;44.44;96167.38;4955576;28;20709;-78
2021/07/18 07:53:02;;;;;;;7.80;2.75;;;;;;;24.13;42.24;96162.78;4985786;28;20203;-78
2021/07/18 07:55:29;;;;;;;5.93;2.75;;;;;;;23.81;43.67;96156.69;4975612;28;20287;-76
2021/07/18 07:57:54;;;;;;;3.47;2.10;;;;;;;22.82;45.81;96153.50;4990756;28;20218;-77
2021/07/18 08:00:20;;;;;;;3.70;1.90;;;;;;;23.76;43.92;96165.28;4976174;28;20259;-77
2021/07/18 08:02:48;;;;;;;5.30;2.40;;;;;;;22.92;45.44;96154.94;4980324;28;20181;-76
2021/07/18 08:05:14;;;;;;;5.80;2.67;;;;;;;22.49;46.80;96161.53;4980331;28;20269;-79
2021/07/18 08:07:39;;;;;;;7.60;2.47;;;;;;;23.14;45.16;96158.88;4972718;28;20652;-75
2021/07/18 08:10:10;;;;;;;6.05;2.30;;;;;;;22.82;46.04;96156.16;4974774;28;20578;-77
2021/07/18 08:12:36;;;;;;;7.70;2.60;;;;;;;22.64;46.14;96165.78;4960606;28;20183;-76
2021/07/18 08:15:03;;;;;;;5.78;2.13;;;;;;;21.85;49.41;96159.53;4973021;28;20180;-76
2021/07/18 08:17:29;;;;;;;3.50;2.33;;;;;;;21.32;49.49;96159.47;4970981;28;20251;-76
2021/07/18 08:19:54;;;;;;;3.72;2.65;;;;;;;21.02;50.60;96158.91;4971126;28;20181;-76
2021/07/18 08:22:19;;;;;;;3.60;2.15;;;;;;;20.71;52.92;96154.13;4955703;28;20231;-76
2021/07/18 08:24:45;;;;;;;5.13;2.53;;;;;;;20.68;52.94;96165.09;4983051;28;20203;-76
2021/07/18 08:27:10;;;;;;;3.33;2.28;;;;;;;20.75;52.83;96160.63;4977932;28;20184;-76
2021/07/18 08:29:35;;;;;;;7.40;2.47;;;;;;;20.98;51.87;96159.53;4994055;28;20303;-77
2021/07/18 08:32:02;;;;;;;2.83;2.35;;;;;;;21.17;52.57;96156.94;4992009;28;20180;-77
2021/07/18 08:34:27;;;;;;;6.57;3.03;;;;;;;20.96;52.31;96159.72;4981592;28;20243;-76
2021/07/18 08:36:53;;;;;;;3.42;2.42;;;;;;;21.84;50.64;96165.03;4974589;28;20175;-77
2021/07/18 08:39:18;;;;;;;3.83;2.45;;;;;;;21.32;52.26;96159.47;4993937;28;20626;-77
2021/07/18 08:41:44;;;;;;;4.38;2.45;;;;;;;20.92;53.00;96167.22;4977462;28;20179;-77
2021/07/18 08:44:14;;;;;;;6.60;2.90;;;;;;;20.68;52.62;96159.81;4983721;28;20227;-77
2021/07/18 08:46:40;;;;;;;7.60;2.80;;;;;;;21.28;51.93;96147.66;4979397;28;20742;-76
2021/07/18 08:49:09;;;;;;;6.68;2.70;;;;;;;20.58;53.31;96157.53;4957975;28;20212;-76
2021/07/18 08:51:36;;;;;;;3.47;2.60;;;;;;;20.81;53.45;96151.94;4974064;28;20656;-77
2021/07/18 08:54:02;;;;;;;4.25;2.53;;;;;;;20.83;53.17;96149.91;4974598;28;20204;-77
2021/07/18 08:56:31;;;;;;;5.05;2.80;;;;;;;20.92;52.12;96148.72;4985616;28;20180;-76
2021/07/18 08:58:57;;;;;;;5.15;3.10;;;;;;;21.03;52.55;96150.00;4977895;28;20190;-77
2021/07/18 09:01:23;;;;;;;6.72;2.60;;;;;;;21.63;51.84;96150.16;4976962;28;20703;-77
2021/07/18 09:03:48;;;;;;;5.40;2.63;;;;;;;21.18;53.17;96157.75;4994707;28;20192;-76
2021/07/18 09:06:13;;;;;;;5.63;2.40;;;;;;;21.20;52.56;96155.72;4981875;28;20189;-77
2021/07/18 09:08:44;;;;;;;4.38;2.30;;;;;;;21.37;54.35;96153.56;4988575;28;20184;-77
2021/07/18 09:11:18;;;;;;;10.18;2.78;;;;;;;21.50;53.08;96156.25;4993277;28;20202;-77
2021/07/18 09:13:57;;;;;;;2.80;2.47;;;;;;;21.42;52.05;96156.44;4993289;28;20199;-77
2021/07/18 09:16:40;;;;;;;7.38;2.63;;;;;;;21.20;54.33;96159.22;4966828;28;20605;-77
2021/07/18 09:19:22;;;;;;;6.00;2.78;;;;;;;21.60;51.31;96156.66;4982231;28;20183;-77
2021/07/18 09:22:21;;;;;;;7.20;2.95;;;;;;;21.71;52.78;96156.06;4990049;28;20180;-75
2021/07/18 09:24:47;;;;;;;4.97;2.97;;;;;;;22.02;50.82;96150.19;4993241;28;20191;-76
2021/07/18 09:27:33;;;;;;;6.28;2.60;;;;;;;21.55;53.85;96145.88;4985259;28;20687;-76
2021/07/18 09:30:14;;;;;;;4.72;2.58;;;;;;;22.11;50.60;96142.88;4974542;28;20215;-76
2021/07/18 09:32:49;;;;;;;4.32;3.22;;;;;;;21.88;52.54;96153.03;4992787;28;20196;-77
2021/07/18 09:35:16;;;;;;;8.52;3.38;;;;;;;21.60;50.98;96151.38;4993053;28;20598;-77
2021/07/18 09:37:43;;;;;;;4.43;2.88;;;;;;;21.61;52.16;96142.44;4984121;28;20223;-77
2021/07/18 09:40:13;;;;;;;4.05;2.67;;;;;;;21.46;54.02;96147.06;4985949;28;20176;-76
2021/07/18 09:42:44;;;;;;;3.75;2.72;;;;;;;21.63;53.11;96140.41;4993494;28;20676;-77
2021/07/18 09:45:13;;;;;;;5.05;2.80;;;;;;;21.77;53.42;96144.69;4992791;28;20184;-76
2021/07/18 09:48:00;;;;;;;4.30;2.88;;;;;;;21.52;53.79;96143.63;4985442;28;20190;-77
2021/07/18 09:50:28;;;;;;;8.98;3.20;;;;;;;21.77;52.97;96149.16;4980686;28;20555;-77
2021/07/18 09:53:04;;;;;;;7.13;2.80;;;;;;;22.64;50.91;96132.19;4976162;28;20250;-77
2021/07/18 09:55:29;;;;;;;3.60;2.70;;;;;;;22.34;51.40;96139.78;4993719;28;20187;-76
2021/07/18 09:57:54;;;;;;;6.47;2.92;;;;;;;21.92;53.90;96133.09;4986657;28;20252;-77
2021/07/18 10:00:22;;;;;;;3.70;2.78;;;;;;;21.78;52.80;96141.03;4968070;28;20176;-77
2021/07/18 10:02:48;;;;;;;8.05;3.30;;;;;;;21.48;53.87;96137.97;4992213;28;20719;-76
2021/07/18 10:05:29;;;;;;;4.93;3.10;;;;;;;22.24;52.00;96134.91;4992436;28;20230;-76
2021/07/18 10:08:05;;;;;;;5.43;2.72;;;;;;;22.33;53.03;96125.75;4992175;28;20180;-74
2021/07/18 10:10:30;;;;;;;7.05;3.05;;;;;;;22.51;51.53;96117.16;4981636;28;20376;-76
2021/07/18 10:12:55;;;;;;;7.00;2.85;;;;;;;22.83;51.32;96120.72;4972950;28;20230;-77
2021/07/18 10:15:21;;;;;;;3.92;2.63;;;;;;;22.12;53.82;96118.06;4992263;28;20237;-77
2021/07/18 10:17:47;;;;;;;4.95;2.67;;;;;;;22.29;52.70;96127.19;4993435;28;20180;-77
2021/07/18 10:20:12;;;;;;;4.00;2.75;;;;;;;23.07;49.64;96124.50;4980635;28;20176;-77
2021/07/18 10:22:38;;;;;;;5.43;2.83;;;;;;;22.97;50.08;96126.81;4977088;28;20598;-75
2021/07/18 10:25:04;;;;;;;6.10;3.15;;;;;;;22.92;50.52;96126.59;4956424;28;20239;-77
2021/07/18 10:27:29;;;;;;;5.72;3.38;;;;;;;22.58;51.93;96122.44;4971436;28;20652;-77
2021/07/18 10:29:55;;;;;;;4.00;2.92;;;;;;;22.21;52.17;96130.03;4980834;28;20696;-77
2021/07/18 10:32:22;;;;;;;5.10;2.92;;;;;;;22.03;54.47;96125.34;4975369;28;20176;-76
2021/07/18 10:34:51;;;;;;;6.13;3.58;;;;;;;21.95;53.70;96116.81;4991976;28;20200;-77
2021/07/18 10:37:17;;;;;;;4.55;2.72;;;;;;;22.21;52.40;96121.31;4991639;28;20168;-76
2021/07/18 10:39:44;;;;;;;3.92;2.63;;;;;;;22.04;54.64;96118.22;4982042;28;20179;-77
2021/07/18 10:42:16;;;;;;;4.97;2.60;;;;;;;22.50;52.95;96112.06;4972936;28;20193;-77
2021/07/18 10:44:47;;;;;;;10.32;3.80;;;;;;;22.63;52.20;96119.97;4972696;28;20196;-78
2021/07/18 10:47:14;;;;;;;7.47;3.10;;;;;;;22.84;52.69;96111.78;4973892;28;20184;-76
2021/07/18 10:49:59;;;;;;;4.55;2.95;;;;;;;22.51;52.76;96113.69;4978314;28;20226;-78
2021/07/18 10:52:32;;;;;;;3.03;2.70;;;;;;;22.25;52.04;96120.66;4987282;28;20180;-78
2021/07/18 10:54:58;;;;;;;6.50;3.58;;;;;;;22.72;52.46;96116.06;4993559;28;20290;-78
2021/07/18 10:57:26;;;;;;;6.55;2.80;;;;;;;22.70;51.38;96114.63;4979181;28;20658;-77
2021/07/18 10:59:52;;;;;;;5.43;2.50;;;;;;;22.68;51.99;96120.16;4985084;28;20667;-77
2021/07/18 11:02:20;;;;;;;8.15;2.90;;;;;;;22.69;50.14;96118.31;4985654;28;20179;-78
2021/07/18 11:04:53;;;;;;;3.00;2.65;;;;;;;22.63;51.64;96109.38;4977929;28;20536;-77
2021/07/18 11:07:20;;;;;;;5.07;2.70;;;;;;;23.22;49.60;96112.78;4994795;28;20179;-78
2021/07/18 11:09:48;;;;;;;7.40;2.80;;;;;;;22.73;50.41;96109.75;4991051;28;20676;-78
2021/07/18 11:12:31;;;;;;;6.18;2.85;;;;;;;22.63;50.84;96109.38;4983541;28;20263;-78
2021/07/18 11:15:15;;;;;;;4.00;2.80;;;;;;;22.81;49.42;96109.53;4958570;28;20250;-78
2021/07/18 11:17:55;;;;;;;3.97;2.65;;;;;;;22.93;50.01;96112.34;4974960;28;20181;-78
2021/07/18 11:20:55;;;;;;;4.95;2.85;;;;;;;22.72;50.87;96112.63;4974054;28;20168;-77
2021/07/18 11:23:37;;;;;;;8.10;3.03;;;;;;;22.85;49.25;96116.03;4981900;28;20197;-78
2021/07/18 11:26:02;;;;;;;4.68;2.83;;;;;;;22.82;48.71;96108.50;4973282;28;20591;-78